createdAt,value
2018-10-03T00:02:26.842Z,3.20
2018-10-03T00:04:55.410Z,2.90
2018-10-03T00:07:23.829Z,2.50
2018-10-03T00:09:52.503Z,2.53
2018-10-03T00:12:20.992Z,2.27
2018-10-03T00:14:56.121Z,3.20
2018-10-03T00:17:24.857Z,2.53
2018-10-03T00:19:53.663Z,3.17
2018-10-03T00:22:22.448Z,3.03
2018-10-03T00:24:51.185Z,3.30
2018-10-03T00:27:19.843Z,3.27
2018-10-03T00:29:48.450Z,2.40
2018-10-03T00:32:17.211Z,2.33
2018-10-03T00:34:45.740Z,2.70
2018-10-03T00:37:14.388Z,3.07
2018-10-03T00:39:42.937Z,2.80
2018-10-03T00:42:11.462Z,2.83
2018-10-03T00:44:39.961Z,2.52
2018-10-03T00:47:08.827Z,2.77
2018-10-03T00:49:37.723Z,2.57
2018-10-03T00:52:06.154Z,2.70
2018-10-03T00:54:34.686Z,2.67
2018-10-03T00:57:03.383Z,2.47
2018-10-03T00:59:31.719Z,3.10
2018-10-03T01:02:00.104Z,3.20
2018-10-03T01:04:28.577Z,3.03
2018-10-03T01:06:57.114Z,2.20
2018-10-03T01:09:25.558Z,2.50
2018-10-03T01:11:54.724Z,2.70
2018-10-03T01:14:23.284Z,2.57
2018-10-03T01:16:51.938Z,3.00
2018-10-03T01:19:20.953Z,2.77
2018-10-03T01:21:49.582Z,2.40
2018-10-03T01:24:18.219Z,2.73
2018-10-03T01:26:46.940Z,2.77
2018-10-03T01:29:15.524Z,2.80
2018-10-03T01:31:44.057Z,2.40
2018-10-03T01:34:12.634Z,2.83
2018-10-03T01:36:41.320Z,2.40
2018-10-03T01:39:11.068Z,2.80
2018-10-03T01:41:40.324Z,2.73
2018-10-03T01:44:09.786Z,2.90
2018-10-03T01:46:38.984Z,2.93
2018-10-03T01:49:08.148Z,2.30
2018-10-03T01:51:36.917Z,2.40
2018-10-03T01:54:05.554Z,2.10
2018-10-03T01:56:34.202Z,2.47
2018-10-03T01:59:02.892Z,2.43
2018-10-03T02:01:31.472Z,2.30
2018-10-03T02:03:59.917Z,2.67
2018-10-03T02:06:28.391Z,2.37
2018-10-03T02:08:56.997Z,2.33
2018-10-03T02:11:25.398Z,2.60
2018-10-03T02:13:54.041Z,2.80
2018-10-03T02:16:22.997Z,2.93
2018-10-03T02:18:52.079Z,2.10
2018-10-03T02:21:20.682Z,2.20
2018-10-03T02:23:49.173Z,2.30
2018-10-03T02:26:17.937Z,2.53
2018-10-03T02:28:46.819Z,2.67
2018-10-03T02:31:15.437Z,2.87
2018-10-03T02:33:44.262Z,2.70
2018-10-03T02:36:13.063Z,2.67
2018-10-03T02:38:41.797Z,2.93
2018-10-03T02:41:10.466Z,2.23
2018-10-03T02:43:39.229Z,2.30
2018-10-03T02:46:08.110Z,2.50
2018-10-03T02:48:36.808Z,2.50
2018-10-03T02:51:05.625Z,2.87
2018-10-03T02:53:34.175Z,2.20
2018-10-03T02:56:02.989Z,4.00
2018-10-03T02:58:31.531Z,2.70
2018-10-03T03:01:00.272Z,2.67
2018-10-03T03:03:28.919Z,2.80
2018-10-03T03:05:57.409Z,3.20
2018-10-03T03:08:25.929Z,2.90
2018-10-03T03:10:54.997Z,2.97
2018-10-03T03:13:23.647Z,3.07
2018-10-03T03:15:52.651Z,3.37
2018-10-03T03:18:21.249Z,3.50
2018-10-03T03:20:50.073Z,2.60
2018-10-03T03:23:18.601Z,2.97
2018-10-03T03:25:47.208Z,3.27
2018-10-03T03:28:15.570Z,3.80
2018-10-03T03:30:44.146Z,3.37
2018-10-03T03:33:12.968Z,2.70
2018-10-03T03:35:41.384Z,2.90
2018-10-03T03:38:09.803Z,2.52
2018-10-03T03:40:38.474Z,2.67
2018-10-03T03:43:07.198Z,3.23
2018-10-03T03:45:35.866Z,2.77
2018-10-03T03:48:04.422Z,3.37
2018-10-03T03:50:32.911Z,2.73
2018-10-03T03:53:01.410Z,2.80
2018-10-03T03:55:29.892Z,2.77
2018-10-03T03:57:58.267Z,2.93
2018-10-03T04:00:38.856Z,2.98
2018-10-03T04:03:07.278Z,2.70
2018-10-03T04:05:35.797Z,2.70
2018-10-03T04:08:04.114Z,2.40
2018-10-03T04:10:32.519Z,2.60
2018-10-03T04:13:01.008Z,2.20
2018-10-03T04:15:29.520Z,2.40
2018-10-03T04:17:57.990Z,3.10
2018-10-03T04:20:26.414Z,2.70
2018-10-03T04:22:55.094Z,2.45
2018-10-03T04:25:23.661Z,2.50
2018-10-03T04:27:52.393Z,2.23
2018-10-03T04:30:21.053Z,2.20
2018-10-03T04:32:49.680Z,2.43
2018-10-03T04:35:18.754Z,2.37
2018-10-03T04:37:47.286Z,2.00
2018-10-03T04:40:15.737Z,2.10
2018-10-03T04:42:44.274Z,2.37
2018-10-03T04:45:12.740Z,2.70
2018-10-03T04:47:41.504Z,2.43
2018-10-03T04:50:09.959Z,2.53
2018-10-03T04:52:38.687Z,2.80
2018-10-03T04:55:07.376Z,3.50
2018-10-03T04:57:35.808Z,3.20
2018-10-03T05:00:04.485Z,3.30
2018-10-03T05:02:32.879Z,2.80
2018-10-03T05:05:01.390Z,2.37
2018-10-03T05:07:30.014Z,3.07
2018-10-03T05:09:58.499Z,2.90
2018-10-03T05:12:26.975Z,4.10
2018-10-03T05:14:55.467Z,2.87
2018-10-03T05:17:24.124Z,2.67
2018-10-03T05:19:52.806Z,2.87
2018-10-03T05:22:21.875Z,2.60
2018-10-03T05:24:50.381Z,2.50
2018-10-03T05:27:18.959Z,2.50
2018-10-03T05:29:47.553Z,2.37
2018-10-03T05:32:15.975Z,2.97
2018-10-03T05:34:44.444Z,2.77
2018-10-03T05:37:12.921Z,2.97
2018-10-03T05:39:41.584Z,2.73
2018-10-03T05:42:10.236Z,2.90
2018-10-03T05:44:39.157Z,3.00
2018-10-03T05:47:07.668Z,3.00
2018-10-03T05:49:36.340Z,3.00
2018-10-03T05:52:05.016Z,2.43
2018-10-03T05:54:33.824Z,2.37
2018-10-03T05:57:02.587Z,3.10
2018-10-03T05:59:31.298Z,3.80
2018-10-03T06:02:00.056Z,3.33
2018-10-03T06:04:28.751Z,2.60
2018-10-03T06:06:57.553Z,3.13
2018-10-03T06:09:26.228Z,3.10
2018-10-03T06:11:55.031Z,2.53
2018-10-03T06:14:23.797Z,2.90
2018-10-03T06:16:54.142Z,2.87
2018-10-03T06:19:22.739Z,2.33
2018-10-03T06:21:51.887Z,2.23
2018-10-03T06:24:20.703Z,2.60
2018-10-03T06:26:49.245Z,3.40
2018-10-03T06:29:17.788Z,2.30
2018-10-03T06:31:46.586Z,2.63
2018-10-03T06:34:15.703Z,2.73
2018-10-03T06:36:44.138Z,2.70
2018-10-03T06:39:12.722Z,2.50
2018-10-03T06:41:41.670Z,2.50
2018-10-03T06:44:10.638Z,2.10
2018-10-03T06:46:40.219Z,2.70
2018-10-03T06:49:08.816Z,3.60
2018-10-03T06:51:37.534Z,3.77
2018-10-03T06:54:06.279Z,4.17
2018-10-03T06:56:34.737Z,3.10
2018-10-03T06:59:03.292Z,3.10
2018-10-03T07:01:31.981Z,3.30
2018-10-03T07:04:00.780Z,3.12
2018-10-03T07:06:29.483Z,3.27
2018-10-03T07:11:51.726Z,2.90
2018-10-03T07:14:20.499Z,3.53
2018-10-03T07:16:49.045Z,3.30
2018-10-03T07:19:17.705Z,3.50
2018-10-03T07:21:46.422Z,3.37
2018-10-03T07:24:15.070Z,6.70
2018-10-03T07:26:43.656Z,3.93
2018-10-03T07:29:12.652Z,3.30
2018-10-03T07:31:41.160Z,3.20
2018-10-03T07:34:09.741Z,3.50
2018-10-03T07:36:38.214Z,3.17
2018-10-03T07:39:09.211Z,3.30
2018-10-03T07:41:37.953Z,2.70
2018-10-03T07:44:06.742Z,1.93
2018-10-03T07:46:35.024Z,2.33
2018-10-03T07:49:03.680Z,2.27
2018-10-03T07:51:32.192Z,2.63
2018-10-03T07:54:00.841Z,2.40
2018-10-03T07:56:29.303Z,2.10
2018-10-03T07:58:57.958Z,2.07
2018-10-03T08:01:26.615Z,2.00
2018-10-03T08:03:55.157Z,1.93
2018-10-03T08:06:23.751Z,2.17
2018-10-03T08:08:52.571Z,2.37
2018-10-03T08:11:21.208Z,2.30
2018-10-03T08:13:50.121Z,2.23
2018-10-03T08:16:18.710Z,2.20
2018-10-03T08:18:47.287Z,2.03
2018-10-03T08:21:15.978Z,2.13
2018-10-03T08:23:44.708Z,1.90
2018-10-03T08:26:13.490Z,1.77
2018-10-03T08:28:42.238Z,2.20
2018-10-03T08:31:10.948Z,2.10
2018-10-03T08:33:39.550Z,2.03
2018-10-03T08:36:08.077Z,2.50
2018-10-03T08:38:36.843Z,2.40
2018-10-03T08:41:05.477Z,2.73
2018-10-03T08:43:33.911Z,2.45
2018-10-03T08:46:02.384Z,2.63
2018-10-03T08:48:31.247Z,2.63
2018-10-03T08:51:00.071Z,3.17
2018-10-03T08:53:28.999Z,2.58
2018-10-03T08:55:57.529Z,4.80
2018-10-03T08:58:26.369Z,4.53
2018-10-03T09:00:55.043Z,2.90
2018-10-03T09:03:23.746Z,2.50
2018-10-03T09:05:52.461Z,2.65
2018-10-03T09:08:21.128Z,2.37
2018-10-03T09:10:49.759Z,2.87
2018-10-03T09:13:18.266Z,2.47
2018-10-03T09:15:46.759Z,2.60
2018-10-03T09:18:15.561Z,2.63
2018-10-03T09:20:44.201Z,2.60
2018-10-03T09:23:12.826Z,4.05
2018-10-03T09:25:41.351Z,3.70
2018-10-03T09:28:10.115Z,2.93
2018-10-03T09:30:38.728Z,3.07
2018-10-03T09:33:07.563Z,2.53
2018-10-03T09:35:36.024Z,3.50
2018-10-03T09:38:04.480Z,3.50
2018-10-03T09:40:32.918Z,3.10
2018-10-03T09:43:01.344Z,3.00
2018-10-03T09:45:29.870Z,3.80
2018-10-03T09:47:58.431Z,4.03
2018-10-03T09:50:26.896Z,4.47
2018-10-03T09:52:55.472Z,4.40
2018-10-03T09:55:24.111Z,4.70
2018-10-03T09:57:52.828Z,4.90
2018-10-03T10:00:27.048Z,4.80
2018-10-03T10:02:55.817Z,4.43
2018-10-03T10:05:24.522Z,5.30
2018-10-03T10:07:53.597Z,4.17
2018-10-03T10:10:22.441Z,4.50
2018-10-03T10:12:51.152Z,4.47
2018-10-03T10:15:20.166Z,4.50
2018-10-03T10:17:49.070Z,4.70
2018-10-03T10:20:17.833Z,4.30
2018-10-03T10:22:46.562Z,4.27
2018-10-03T10:25:15.285Z,4.67
2018-10-03T10:27:43.978Z,4.43
2018-10-03T10:30:12.635Z,4.43
2018-10-03T10:32:41.284Z,4.80
2018-10-03T10:35:10.078Z,4.63
2018-10-03T10:37:38.649Z,5.07
2018-10-03T10:40:07.594Z,5.53
2018-10-03T10:42:37.501Z,4.37
2018-10-03T10:45:06.493Z,4.20
2018-10-03T10:47:35.043Z,5.30
2018-10-03T10:50:03.921Z,5.10
2018-10-03T10:52:32.819Z,5.60
2018-10-03T10:55:01.679Z,4.77
2018-10-03T10:57:30.145Z,5.27
2018-10-03T10:59:58.783Z,4.80
2018-10-03T11:02:27.401Z,5.50
2018-10-03T11:04:56.228Z,5.50
2018-10-03T11:07:25.364Z,5.10
2018-10-03T11:09:54.406Z,4.42
2018-10-03T11:12:23.151Z,4.83
2018-10-03T11:14:51.899Z,5.10
2018-10-03T11:17:20.454Z,4.20
2018-10-03T11:19:49.061Z,3.83
2018-10-03T11:22:17.903Z,4.47
2018-10-03T11:24:46.513Z,4.70
2018-10-03T11:27:15.069Z,4.77
2018-10-03T11:29:43.913Z,4.70
2018-10-03T11:32:12.666Z,3.77
2018-10-03T11:34:40.974Z,5.30
2018-10-03T11:37:09.361Z,4.63
2018-10-03T11:39:38.230Z,3.90
2018-10-03T11:42:06.894Z,4.47
2018-10-03T11:44:35.363Z,4.17
2018-10-03T11:47:04.233Z,4.10
2018-10-03T11:49:32.917Z,4.03
2018-10-03T11:52:01.638Z,6.40
2018-10-03T11:54:30.156Z,5.80
2018-10-03T11:56:58.751Z,5.47
2018-10-03T11:59:27.360Z,7.47
2018-10-03T12:01:55.915Z,5.20
2018-10-03T12:04:24.498Z,3.97
2018-10-03T12:06:53.068Z,3.42
2018-10-03T12:09:21.742Z,5.20
2018-10-03T12:11:50.270Z,3.73
2018-10-03T12:14:18.858Z,4.77
2018-10-03T12:16:47.614Z,4.60
2018-10-03T12:19:16.031Z,6.50
2018-10-03T12:21:44.486Z,4.93
2018-10-03T12:24:13.029Z,6.00
2018-10-03T12:26:41.758Z,6.30
2018-10-03T12:29:10.462Z,5.27
2018-10-03T12:31:39.161Z,5.40
2018-10-03T12:34:07.880Z,4.10
2018-10-03T12:36:36.230Z,4.30
2018-10-03T12:39:06.609Z,4.13
2018-10-03T12:41:35.176Z,3.23
2018-10-03T12:44:03.675Z,3.40
2018-10-03T12:46:32.215Z,3.53
2018-10-03T12:49:00.911Z,4.10
2018-10-03T12:51:29.524Z,3.70
2018-10-03T12:53:57.912Z,2.93
2018-10-03T12:56:26.347Z,3.30
2018-10-03T12:58:55.029Z,3.40
2018-10-03T13:01:23.594Z,3.27
2018-10-03T13:03:52.420Z,5.67
2018-10-03T13:06:21.088Z,3.50
2018-10-03T13:08:49.842Z,3.47
2018-10-03T13:11:18.680Z,3.53
2018-10-03T13:13:47.208Z,3.90
2018-10-03T13:16:15.809Z,4.03
2018-10-03T13:18:44.303Z,3.90
2018-10-03T13:21:13.006Z,3.73
2018-10-03T13:23:41.732Z,3.67
2018-10-03T13:31:06.166Z,5.20
2018-10-03T13:33:34.733Z,5.47
2018-10-03T13:36:03.449Z,4.33
2018-10-03T13:38:32.115Z,4.50
2018-10-03T13:41:00.918Z,4.30
2018-10-03T13:43:29.399Z,5.10
2018-10-03T13:45:58.017Z,5.20
2018-10-03T13:48:26.818Z,4.53
2018-10-03T13:50:55.500Z,4.23
2018-10-03T13:53:24.101Z,4.30
2018-10-03T13:55:52.764Z,4.33
2018-10-03T13:58:21.383Z,4.70
2018-10-03T14:00:49.956Z,4.83
2018-10-03T14:03:18.497Z,5.00
2018-10-03T14:05:47.043Z,5.53
2018-10-03T14:08:15.720Z,4.97
2018-10-03T14:10:44.420Z,4.60
2018-10-03T14:13:13.110Z,5.10
2018-10-03T14:15:41.630Z,4.80
2018-10-03T14:18:10.183Z,4.73
2018-10-03T14:20:39.460Z,4.75
2018-10-03T14:23:08.150Z,4.65
2018-10-03T14:25:36.589Z,4.50
2018-10-03T14:28:05.219Z,4.27
2018-10-03T14:30:33.895Z,4.27
2018-10-03T14:33:02.632Z,4.00
2018-10-03T14:35:31.155Z,4.45
2018-10-03T14:37:59.782Z,4.70
2018-10-03T14:40:28.421Z,4.27
2018-10-03T14:42:56.991Z,4.53
2018-10-03T14:45:26.331Z,3.87
2018-10-03T14:47:55.048Z,3.90
2018-10-03T14:50:23.800Z,4.10
2018-10-03T14:52:53.196Z,4.13
2018-10-03T14:55:21.901Z,3.87
2018-10-03T14:57:51.630Z,3.90
2018-10-03T15:00:20.389Z,4.40
2018-10-03T15:02:48.865Z,4.70
2018-10-03T15:05:17.458Z,3.77
2018-10-03T15:07:45.877Z,4.20
2018-10-03T15:10:14.438Z,4.60
2018-10-03T15:12:42.930Z,4.63
2018-10-03T15:15:11.575Z,4.00
2018-10-03T15:17:40.018Z,4.07
2018-10-03T15:20:08.737Z,4.27
2018-10-03T15:22:37.697Z,3.60
2018-10-03T15:25:06.355Z,4.00
2018-10-03T15:27:35.242Z,4.10
2018-10-03T15:30:03.836Z,4.07
2018-10-03T15:32:32.443Z,3.80
2018-10-03T15:35:01.026Z,5.10
2018-10-03T15:37:29.863Z,4.60
2018-10-03T15:39:58.529Z,4.10
2018-10-03T15:42:27.333Z,4.00
2018-10-03T15:44:56.193Z,4.67
2018-10-03T15:47:25.154Z,4.60
2018-10-03T15:49:54.204Z,4.07
2018-10-03T15:52:22.874Z,4.73
2018-10-03T15:54:51.845Z,4.27
2018-10-03T15:57:20.965Z,3.90
2018-10-03T15:59:49.656Z,5.50
2018-10-03T16:02:18.413Z,5.03
2018-10-03T16:04:48.074Z,4.37
2018-10-03T16:07:16.656Z,4.37
2018-10-03T16:09:45.534Z,4.43
2018-10-03T16:12:14.020Z,4.53
2018-10-03T16:14:42.894Z,5.13
2018-10-03T16:17:11.507Z,5.13
2018-10-03T16:19:40.246Z,5.10
2018-10-03T16:22:09.065Z,5.37
2018-10-03T16:24:37.758Z,5.13
2018-10-03T16:27:06.421Z,5.27
2018-10-03T16:29:35.590Z,5.70
2018-10-03T16:32:04.080Z,4.87
2018-10-03T16:34:32.553Z,5.40
2018-10-03T16:37:01.096Z,5.47
2018-10-03T16:39:29.590Z,5.70
2018-10-03T16:41:57.978Z,7.37
2018-10-03T16:44:26.766Z,8.50
2018-10-03T16:46:55.171Z,7.00
2018-10-03T16:49:24.011Z,6.50
2018-10-03T16:51:52.996Z,5.30
2018-10-03T16:54:21.719Z,5.43
2018-10-03T16:56:50.204Z,4.80
2018-10-03T16:59:19.054Z,4.90
2018-10-03T17:01:47.952Z,5.30
2018-10-03T17:04:16.548Z,4.90
2018-10-03T17:06:45.254Z,5.60
2018-10-03T17:09:14.078Z,5.40
2018-10-03T17:11:42.658Z,4.93
2018-10-03T17:14:30.148Z,5.60
2018-10-03T17:16:58.674Z,5.70
2018-10-03T17:19:27.298Z,5.10
2018-10-03T17:21:56.354Z,4.83
2018-10-03T17:24:26.367Z,4.40
2018-10-03T17:26:55.090Z,4.83
2018-10-03T17:29:23.850Z,5.13
2018-10-03T17:31:52.377Z,4.47
2018-10-03T17:34:20.942Z,5.00
2018-10-03T17:36:50.737Z,4.70
2018-10-03T17:39:19.685Z,4.53
2018-10-03T17:41:48.329Z,4.70
2018-10-03T17:44:17.938Z,4.43
2018-10-03T17:46:46.984Z,4.57
2018-10-03T17:49:15.451Z,5.43
2018-10-03T17:51:44.338Z,5.03
2018-10-03T17:54:13.123Z,5.10
2018-10-03T17:56:41.982Z,4.60
2018-10-03T17:59:11.118Z,4.83
2018-10-03T18:01:42.370Z,3.93
2018-10-03T18:04:10.900Z,4.47
2018-10-03T18:06:39.608Z,5.00
2018-10-03T18:09:10.061Z,9.25
2018-10-03T18:11:39.332Z,10.47
2018-10-03T18:14:08.471Z,8.03
2018-10-03T18:16:37.629Z,9.57
2018-10-03T18:19:06.808Z,9.10
2018-10-03T18:21:36.217Z,9.70
2018-10-03T18:24:04.823Z,8.40
2018-10-03T18:26:33.487Z,9.23
2018-10-03T18:29:02.193Z,9.03
2018-10-03T18:31:30.776Z,7.72
2018-10-03T18:33:59.511Z,7.50
2018-10-03T18:36:28.033Z,6.63
2018-10-03T18:38:56.720Z,6.27
2018-10-03T18:41:25.422Z,7.97
2018-10-03T18:43:54.135Z,7.35
2018-10-03T18:46:22.981Z,6.07
2018-10-03T18:48:51.779Z,6.17
2018-10-03T18:51:20.451Z,6.70
2018-10-03T18:53:49.783Z,7.10
2018-10-03T18:56:18.437Z,10.27
2018-10-03T18:58:47.194Z,6.30
2018-10-03T19:01:15.813Z,7.67
2018-10-03T19:03:44.610Z,7.60
2018-10-03T19:06:13.229Z,7.47
2018-10-03T19:08:41.735Z,7.07
2018-10-03T19:11:10.270Z,7.63
2018-10-03T19:13:39.151Z,8.73
2018-10-03T19:16:07.938Z,9.07
2018-10-03T19:18:36.921Z,8.37
2018-10-03T19:21:05.582Z,7.60
2018-10-03T19:23:34.353Z,6.70
2018-10-03T19:26:03.109Z,8.47
2018-10-03T19:28:31.634Z,7.50
2018-10-03T19:31:00.094Z,8.00
2018-10-03T19:33:28.838Z,7.40
2018-10-03T19:35:57.222Z,7.90
2018-10-03T19:38:25.795Z,8.57
2018-10-03T19:40:54.493Z,9.80
2018-10-03T19:43:23.255Z,9.30
2018-10-03T19:45:52.230Z,6.33
2018-10-03T19:48:20.782Z,5.27
2018-10-03T19:50:49.447Z,8.45
2018-10-03T19:53:23.245Z,8.67
2018-10-03T19:55:51.793Z,8.23
2018-10-03T19:58:20.511Z,7.50
2018-10-03T20:00:49.305Z,7.30
2018-10-03T20:03:17.851Z,6.10
2018-10-03T20:05:46.320Z,5.78
2018-10-03T20:08:14.834Z,5.23
2018-10-03T20:10:43.447Z,7.53
2018-10-03T20:13:11.916Z,8.53
2018-10-03T20:15:40.364Z,8.83
2018-10-03T20:18:08.979Z,8.37
2018-10-03T20:20:37.717Z,7.00
2018-10-03T20:23:06.175Z,6.70
2018-10-03T20:25:34.504Z,6.07
2018-10-03T20:28:03.211Z,7.27
2018-10-03T20:30:31.786Z,7.30
2018-10-03T20:33:00.382Z,6.70
2018-10-03T20:35:28.825Z,7.60
2018-10-03T20:37:57.226Z,6.80
2018-10-03T20:40:25.921Z,6.83
2018-10-03T20:42:56.106Z,6.20
2018-10-03T20:45:25.865Z,6.60
2018-10-03T20:47:54.740Z,6.63
2018-10-03T20:50:23.345Z,6.03
2018-10-03T20:52:51.952Z,6.50
2018-10-03T20:55:20.677Z,6.60
2018-10-03T20:57:49.081Z,6.17
2018-10-03T21:00:18.148Z,5.60
2018-10-03T21:02:47.002Z,5.60
2018-10-03T21:05:15.695Z,4.87
2018-10-03T21:07:44.234Z,5.43
2018-10-03T21:10:12.764Z,5.80
2018-10-03T21:12:41.501Z,4.90
2018-10-03T21:15:10.050Z,5.40
2018-10-03T21:17:38.858Z,5.47
2018-10-03T21:20:07.748Z,6.07
2018-10-03T21:22:36.417Z,6.00
2018-10-03T21:25:05.096Z,5.40
2018-10-03T21:27:33.584Z,5.70
2018-10-03T21:30:02.220Z,6.47
2018-10-03T21:32:30.736Z,5.20
2018-10-03T21:34:59.496Z,5.47
2018-10-03T21:37:27.912Z,4.80
2018-10-03T21:39:56.409Z,5.63
2018-10-03T21:42:24.823Z,6.87
2018-10-03T21:44:53.509Z,5.93
2018-10-03T21:47:22.110Z,5.97
2018-10-03T21:49:50.798Z,7.33
2018-10-03T21:52:19.273Z,6.43
2018-10-03T21:54:47.977Z,7.20
2018-10-03T21:57:16.728Z,7.07
2018-10-03T21:59:45.301Z,6.53
2018-10-03T22:02:14.597Z,6.67
2018-10-03T22:04:43.187Z,6.00
2018-10-03T22:07:11.879Z,6.73
2018-10-03T22:09:41.434Z,6.77
2018-10-03T22:12:10.170Z,6.50
2018-10-03T22:14:39.085Z,6.42
2018-10-03T22:17:11.906Z,6.70
2018-10-03T22:19:40.539Z,6.60
2018-10-03T22:22:09.628Z,7.73
2018-10-03T22:27:31.042Z,6.57
2018-10-03T22:29:59.524Z,7.37
2018-10-03T22:32:28.160Z,7.00
2018-10-03T22:34:56.912Z,7.60
2018-10-03T22:37:25.510Z,7.40
2018-10-03T22:39:54.398Z,7.10
2018-10-03T22:42:23.103Z,6.53
2018-10-03T22:44:51.768Z,6.63
2018-10-03T22:47:20.351Z,6.83
2018-10-03T22:49:48.925Z,7.20
2018-10-03T22:52:17.578Z,7.30
2018-10-03T22:54:46.100Z,7.43
2018-10-03T22:57:14.748Z,7.50
2018-10-03T22:59:43.507Z,7.77
2018-10-03T23:02:12.265Z,7.57
2018-10-03T23:04:40.873Z,10.10
2018-10-03T23:07:09.630Z,11.60
2018-10-03T23:09:38.672Z,8.30
2018-10-03T23:12:07.610Z,8.50
2018-10-03T23:14:36.071Z,7.87
2018-10-03T23:17:04.779Z,11.20
2018-10-03T23:19:33.384Z,11.93
2018-10-03T23:22:01.923Z,9.10
2018-10-03T23:24:30.624Z,10.23
2018-10-03T23:26:59.447Z,11.57
2018-10-03T23:29:28.017Z,8.50
2018-10-03T23:31:56.461Z,9.30
2018-10-03T23:34:24.943Z,9.50
2018-10-03T23:36:53.411Z,8.37
2018-10-03T23:39:22.098Z,8.70
2018-10-03T23:41:50.693Z,7.77
2018-10-03T23:44:19.066Z,8.10
2018-10-03T23:46:47.513Z,8.50
2018-10-03T23:49:15.924Z,9.50
2018-10-03T23:51:44.364Z,9.43
2018-10-03T23:54:13.107Z,10.03
2018-10-03T23:56:41.749Z,9.00
2018-10-03T23:59:10.387Z,13.50
